Flight Track Log - Related Links

Times and Time Zones

All times are in EDT time to prevent confusion due to time zone crossing. See the CTL14 flight status page for this flight to view local times or setup timezone preferences in your user account.

Time Position Orientation Groundspeed Altitude Reporting Facility
EDT Latitude Longitude Course Direction KTS MPH feet Rate Location/Type
Fri 12:09:21 AM 42.1833 -87.7833 66° East 149 171 3,300  Level Chicago TRACON
Fri 12:10:21 AM 42.1833 -87.7333 90° East 146 168 4,000 667 Climbing Chicago TRACON
Fri 12:11:18 AM 42.1883 -87.6917 81° East 144 166 4,600 610 Climbing Chicago Center
Fri 12:12:19 AM 42.1922 -87.6372 84° East 146 168 5,200 645 Climbing Chicago Center
Fri 12:13:00 AM 42.0171 -87.6678 118° Southeast  Level FlightAware Approximate
Fri 12:13:19 AM 42.1825 -87.5864 104° East 145 167 5,900  Level Chicago Center
Fri 12:14:20 AM 42.1617 -87.5389 121° Southeast 146 168 6,400 492 Climbing Chicago Center
Fri 12:15:21 AM 42.1397 -87.4914 122° Southeast 150 173 6,900 295 Climbing Chicago Center
Fri 12:16:22 AM 42.1164 -87.4411 122° Southeast 156 180 7,000 49 Climbing Chicago Center
Fri 12:17:23 AM 42.0853 -87.3697 120° Southeast 182 209 7,000  Level Chicago Center
Fri 12:18:23 AM 42.0628 -87.3106 117° Southeast 181 208 7,000  Level Chicago Center
Fri 12:19:24 AM 42.0383 -87.2517 119° Southeast 181 208 7,000  Level Chicago Center
Fri 12:20:24 AM 42.0128 -87.1928 120° Southeast 182 209 7,000  Level Chicago Center
Fri 12:21:25 AM 41.9875 -87.1342 120° Southeast 183 211 7,000 -49 Level Chicago Center
Fri 12:22:26 AM 41.9619 -87.0758 120° Southeast 182 209 6,900  Descending Chicago Center
Fri 12:23:26 AM 41.9372 -87.0192 120° Southeast 180 207 7,000 99 Climbing Chicago Center
Fri 12:24:27 AM 41.9128 -86.9611 119° Southeast 179 206 7,100 49 Climbing Chicago Center
Fri 12:25:28 AM 41.8878 -86.9017 119° Southeast 183 211 7,100  Level Chicago Center
Fri 12:26:28 AM 41.8614 -86.8442 122° Southeast 182 209 7,100  Level Chicago Center
Fri 12:27:29 AM 41.8392 -86.7853 117° Southeast 180 207 7,100  Level Chicago Center
Fri 12:28:29 AM 41.8144 -86.7264 119° Southeast 180 207 7,100  Level Chicago Center
Fri 12:29:30 AM 41.7892 -86.6681 120° Southeast 177 204 7,100  Level Chicago Center
Fri 12:30:31 AM 41.7619 -86.6108 123° Southeast 181 208 7,100 -50 Level Chicago Center
Fri 12:31:31 AM 41.7372 -86.5564 121° Southeast 175 201 7,000 -50 Descending Chicago Center
Fri 12:32:32 AM 41.7119 -86.5011 121° Southeast 173 199 7,000 50 Level Chicago Center
Fri 12:33:32 AM 41.6847 -86.4458 123° Southeast 175 201 7,100  Climbing Chicago Center
Fri 12:34:33 AM 41.6594 -86.3908 122° Southeast 174 200 7,000  Descending Chicago Center
Fri 12:35:33 AM 41.6306 -86.3231 120° Southeast 176 203 7,100 50 Climbing Chicago Center
Fri 12:36:34 AM 41.6056 -86.2669 121° Southeast 175 201 7,100  Level Chicago Center
Fri 12:37:34 AM 41.5792 -86.2106 122° Southeast 177 204 7,100  Level Chicago Center
Fri 12:38:35 AM 41.5544 -86.1542 120° Southeast 177 204 7,100  Level Chicago Center
Fri 12:39:35 AM 41.5289 -86.0986 122° Southeast 176 203 7,100  Level Chicago Center
Fri 12:40:36 AM 41.5017 -86.0439 124° Southeast 176 203 7,100 -50 Level Chicago Center
Fri 12:41:36 AM 41.4761 -85.9867 121° Southeast 179 206 7,000 -50 Descending Chicago Center
Fri 12:42:37 AM 41.4497 -85.9317 123° Southeast 178 205 7,000  Level Chicago Center
Fri 12:43:37 AM 41.4228 -85.8756 123° Southeast 179 206 7,000  Level Chicago Center
Fri 12:44:38 AM 41.3958 -85.8211 123° Southeast 178 205 7,000  Level Chicago Center
Fri 12:45:38 AM 41.3683 -85.7669 124° Southeast 178 205 7,000  Level Chicago Center
Fri 12:46:39 AM 41.3422 -85.7106 122° Southeast 179 206 7,000 50 Level Chicago Center
Fri 12:47:39 AM 41.3136 -85.6561 125° Southeast 179 206 7,100  Climbing Chicago Center
Fri 12:48:40 AM 41.2861 -85.6008 123° Southeast 180 207 7,000 -50 Descending Chicago Center
Fri 12:49:40 AM 41.2606 -85.5450 121° Southeast 179 206 7,000 50 Level Chicago Center
Fri 12:50:41 AM 41.2350 -85.4881 121° Southeast 180 207 7,100  Climbing Chicago Center
Fri 12:51:41 AM 41.2083 -85.4319 122° Southeast 180 207 7,000  Descending Chicago Center
Fri 12:52:42 AM 41.1767 -85.3658 122° Southeast 177 204 7,100  Climbing Chicago Center
Fri 12:53:42 AM 41.1478 -85.3094 124° Southeast 184 212 7,000 -50 Descending Chicago Center
Fri 12:54:42 AM 41.1206 -85.2542 123° Southeast 181 208 7,000  Level Chicago Center
Fri 12:55:43 AM 41.0947 -85.1975 121° Southeast 181 208 7,000  Level Chicago Center
Fri 12:56:43 AM 41.0678 -85.1414 122° Southeast 180 207 7,000  Level Chicago Center
Fri 12:57:44 AM 41.0406 -85.0847 122° Southeast 183 211 7,000  Level Chicago Center
Fri 12:58:44 AM 41.0139 -85.0294 123° Southeast 179 206 7,000  Level Chicago Center
Fri 12:59:44 AM 40.9872 -84.9714 121° Southeast 184 212 7,000  Level Chicago Center
Fri 01:00:45 AM 40.9606 -84.9156 122° Southeast 182 209 7,000  Level Chicago Center
Fri 01:01:45 AM 40.9339 -84.8600 122° Southeast 181 208 7,000  Level Chicago Center
Fri 01:02:46 AM 40.9075 -84.8042 122° Southeast 179 206 7,000  Level Chicago Center
Fri 01:03:46 AM 40.8792 -84.7486 124° Southeast 182 209 7,000  Level Chicago Center
Fri 01:04:46 AM 40.8522 -84.6933 123° Southeast 181 208 7,000  Level Chicago Center
Fri 01:05:34 AM 40.8286 -84.6481 125° Southeast 178 205 7,000  Level Indianapolis Center
Fri 01:06:35 AM 40.8017 -84.5894 121° Southeast 182 209 7,000  Level Indianapolis Center
Fri 01:07:35 AM 40.7750 -84.5342 122° Southeast 180 207 7,000  Level Indianapolis Center
Fri 01:08:36 AM 40.7475 -84.4750 122° Southeast 185 213 7,000  Level Indianapolis Center
Fri 01:09:36 AM 40.7217 -84.4178 121° Southeast 182 209 7,000  Level Indianapolis Center
Fri 01:10:36 AM 40.6950 -84.3606 122° Southeast 181 208 7,000  Level Indianapolis Center
Fri 01:11:37 AM 40.6683 -84.3031 121° Southeast 183 211 7,000  Level Indianapolis Center
Fri 01:12:37 AM 40.6397 -84.2483 125° Southeast 181 208 7,000  Level Indianapolis Center
Fri 01:13:37 AM 40.6133 -84.1892 120° Southeast 184 212 7,000  Level Indianapolis Center
Fri 01:14:38 AM 40.5864 -84.1311 121° Southeast 183 211 7,000  Level Indianapolis Center
Fri 01:15:38 AM 40.5603 -84.0761 122° Southeast 179 206 7,000 61 Level Indianapolis Center
Fri 01:16:16 AM 40.5433 -84.0442 125° Southeast 178 205 7,100  Climbing Indianapolis Center
Fri 01:17:16 AM 40.5158 -83.9869 122° Southeast 174 200 7,000 -50 Descending Indianapolis Center
Fri 01:18:17 AM 40.4917 -83.9331 121° Southeast 175 201 7,000  Level Indianapolis Center
Fri 01:19:17 AM 40.4636 -83.8786 124° Southeast 176 203 7,000 -198 Level Indianapolis Center
Fri 01:20:18 AM 40.4358 -83.8214 123° Southeast 185 213 6,600 -393 Descending Indianapolis Center
Fri 01:21:19 AM 40.4106 -83.7619 119° Southeast 191 220 6,200 -397 Descending Indianapolis Center
Fri 01:22:19 AM 40.3808 -83.7019 123° Southeast 193 222 5,800 -397 Descending Indianapolis Center
Fri 01:23:20 AM 40.3533 -83.6394 120° Southeast 190 219 5,400 -446 Descending Indianapolis Center
Fri 01:24:20 AM 40.3253 -83.5850 124° Southeast 183 211 4,900 -470 Descending Indianapolis Center
Fri 01:25:15 AM 40.2989 -83.5339 124° Southeast 183 211 4,500 -382 Descending Indianapolis Center
Fri 01:26:10 AM 40.2761 -83.4861 122° Southeast 177 204 4,200 -276 Descending Indianapolis Center
Fri 01:26:42 AM 40.2661 -83.4597 116° Southeast 179 206 4,100 -182 Descending Indianapolis Center
Fri 01:27:16 AM 40.2483 -83.4267 125° Southeast 169 194 4,000 -63 Descending Indianapolis Center
Fri 01:28:17 AM 40.2239 -83.3786 124° Southeast 160 184 4,000 -41 Level Indianapolis Center
Fri 01:29:43 AM 40.1931 -83.3122 121° Southeast 164 189 3,900 -70 Descending Indianapolis Center

Login

Don't have an account? Register now (free) for customized features, flight alerts, and more!